Time;durP1;ratioP1;P1;durP2;ratioP2;P2;SDS_P1;SDS_P2;PMS_P1;PMS_P2;Temp;Humidity;BMP_temperature;BMP_pressure;BME280_temperature;BME280_humidity;BME280_pressure;Samples;Min_cycle;Max_cycle;Signal;HPM_P1;HPM_P2
2023/05/28 00:01:46;;;;;;;10.63;6.47;;;13.20;99.90;;;;;;4937623;28;20721;-58
2023/05/28 00:04:13;;;;;;;14.17;6.40;;;13.10;99.90;;;;;;4934963;29;20695;-59
2023/05/28 00:06:40;;;;;;;11.43;6.23;;;13.00;99.90;;;;;;4947440;28;20521;-58
2023/05/28 00:09:08;;;;;;;12.97;6.27;;;13.00;99.90;;;;;;4943918;29;20558;-58
2023/05/28 00:11:36;;;;;;;10.00;6.30;;;13.00;99.90;;;;;;4951488;28;20438;-58
2023/05/28 00:14:03;;;;;;;12.67;6.60;;;12.90;99.90;;;;;;4954137;28;20285;-59
2023/05/28 00:16:30;;;;;;;9.60;5.87;;;12.90;99.90;;;;;;4944562;29;20613;-57
2023/05/28 00:18:57;;;;;;;12.43;6.07;;;12.90;99.90;;;;;;4928268;28;20253;-57
2023/05/28 00:21:26;;;;;;;9.03;6.57;;;12.90;99.90;;;;;;4950503;29;20302;-58
2023/05/28 00:23:53;;;;;;;14.17;6.77;;;12.80;99.90;;;;;;4957377;28;20702;-64
2023/05/28 00:26:20;;;;;;;11.73;6.37;;;12.60;99.90;;;;;;4949987;29;20266;-58
2023/05/28 00:28:48;;;;;;;10.67;6.53;;;12.50;99.90;;;;;;4933286;29;20230;-58
2023/05/28 00:31:15;;;;;;;21.10;13.43;;;12.70;99.90;;;;;;4950193;28;20213;-57
2023/05/28 00:33:43;;;;;;;19.87;14.83;;;12.80;99.90;;;;;;4953695;28;20284;-58
2023/05/28 00:36:13;;;;;;;21.50;14.63;;;13.00;99.90;;;;;;4938971;29;20195;-59
2023/05/28 00:38:41;;;;;;;20.43;13.57;;;13.10;99.90;;;;;;4941728;29;20206;-58
2023/05/28 00:41:08;;;;;;;24.90;15.10;;;13.20;99.90;;;;;;4965057;28;20306;-57
2023/05/28 00:43:35;;;;;;;18.07;13.57;;;13.20;99.90;;;;;;4953944;28;21126;-57
2023/05/28 00:46:05;;;;;;;10.97;6.93;;;13.20;99.90;;;;;;4942147;28;20230;-57
2023/05/28 00:48:32;;;;;;;13.37;6.43;;;13.00;99.90;;;;;;4935380;29;20203;-57
2023/05/28 00:51:00;;;;;;;12.20;6.20;;;12.30;99.90;;;;;;4947428;29;20274;-62
2023/05/28 00:53:27;;;;;;;12.03;7.70;;;11.90;99.90;;;;;;4955181;28;20281;-62
2023/05/28 00:55:55;;;;;;;13.40;7.10;;;11.80;99.90;;;;;;4950931;28;20692;-62
2023/05/28 00:58:23;;;;;;;19.03;13.47;;;11.40;99.90;;;;;;4938017;28;20206;-62
2023/05/28 01:00:50;;;;;;;20.73;13.03;;;11.60;99.90;;;;;;4932992;29;20211;-57
2023/05/28 01:03:17;;;;;;;18.83;13.13;;;11.90;99.90;;;;;;4997546;23;20257;-71
2023/05/28 01:05:45;;;;;;;13.63;7.93;;;12.10;99.90;;;;;;4947190;28;20208;-71
2023/05/28 01:08:12;;;;;;;10.77;7.67;;;12.40;99.90;;;;;;4918675;29;20199;-72
2023/05/28 01:10:39;;;;;;;9.37;6.63;;;12.20;99.90;;;;;;4914083;29;20567;-72
2023/05/28 01:13:07;;;;;;;11.63;5.97;;;12.10;99.90;;;;;;4958936;28;20198;-70
2023/05/28 01:15:37;;;;;;;12.40;7.17;;;11.70;99.90;;;;;;4957574;28;20286;-70
2023/05/28 01:18:04;;;;;;;10.13;7.07;;;11.60;99.90;;;;;;4957872;28;20211;-69
2023/05/28 01:20:31;;;;;;;9.23;5.77;;;11.70;99.90;;;;;;4938447;29;20262;-70
2023/05/28 01:23:06;;;;;;;13.47;6.50;;;12.00;99.90;;;;;;4953433;28;20206;-71
2023/05/28 01:25:37;;;;;;;9.70;5.97;;;12.20;99.90;;;;;;4940655;29;20218;-72
2023/05/28 01:28:13;;;;;;;15.87;6.10;;;12.30;99.90;;;;;;4925777;28;20198;-71
2023/05/28 01:30:43;;;;;;;11.30;5.73;;;12.50;99.90;;;;;;4969159;28;20654;-70
2023/05/28 01:33:11;;;;;;;8.37;5.50;;;12.50;99.90;;;;;;4948656;28;20229;-71
2023/05/28 01:35:39;;;;;;;11.50;5.67;;;12.20;99.90;;;;;;4969211;28;20212;-71
2023/05/28 01:38:08;;;;;;;9.17;5.97;;;12.10;99.90;;;;;;4931756;29;20202;-69
2023/05/28 01:40:38;;;;;;;11.63;6.37;;;12.20;99.90;;;;;;4940075;28;20195;-70
2023/05/28 01:43:07;;;;;;;11.33;7.30;;;12.20;99.90;;;;;;4939841;29;20207;-70
2023/05/28 01:45:34;;;;;;;10.67;7.00;;;11.50;99.90;;;;;;4945685;28;20671;-72
2023/05/28 01:48:02;;;;;;;10.33;6.60;;;11.00;99.90;;;;;;4933687;29;20196;-71
2023/05/28 01:50:32;;;;;;;16.10;7.37;;;11.20;99.90;;;;;;4938616;28;20203;-70
2023/05/28 01:53:00;;;;;;;8.27;5.77;;;11.40;99.90;;;;;;4926156;28;20587;-71
2023/05/28 01:55:27;;;;;;;7.37;5.50;;;11.50;99.90;;;;;;4944243;28;20325;-72
2023/05/28 01:57:55;;;;;;;8.90;6.13;;;11.70;99.90;;;;;;4954967;28;20210;-70
2023/05/28 02:00:23;;;;;;;11.13;6.20;;;11.70;99.90;;;;;;4927932;28;20242;-70
2023/05/28 02:02:52;;;;;;;8.50;5.77;;;11.70;99.90;;;;;;4934401;29;20573;-70
2023/05/28 02:05:20;;;;;;;8.40;5.53;;;11.70;99.90;;;;;;4945305;29;20719;-71
2023/05/28 02:07:47;;;;;;;11.53;6.27;;;11.70;99.90;;;;;;4935823;29;20207;-71
2023/05/28 02:10:15;;;;;;;13.77;6.83;;;11.60;99.90;;;;;;4945885;29;20245;-71
2023/05/28 02:12:42;;;;;;;12.83;6.43;;;11.60;99.90;;;;;;4922049;29;20223;-68
2023/05/28 02:15:11;;;;;;;9.20;5.57;;;11.60;99.90;;;;;;4945723;29;20575;-71
2023/05/28 02:17:38;;;;;;;11.23;5.57;;;11.80;99.90;;;;;;4920714;29;20210;-71
2023/05/28 02:20:06;;;;;;;10.47;6.30;;;11.90;99.90;;;;;;4932269;29;20207;-70
2023/05/28 02:22:33;;;;;;;9.40;5.20;;;11.80;99.90;;;;;;4911937;29;20204;-69
2023/05/28 02:25:00;;;;;;;11.23;5.73;;;11.70;99.90;;;;;;4920651;29;20219;-61
2023/05/28 02:27:27;;;;;;;9.17;5.63;;;11.90;99.90;;;;;;4938067;29;20207;-62
2023/05/28 02:29:54;;;;;;;11.60;6.10;;;11.90;99.90;;;;;;4934716;29;20200;-64
2023/05/28 02:32:22;;;;;;;7.97;5.57;;;12.00;99.90;;;;;;4928225;29;20640;-62
2023/05/28 02:34:50;;;;;;;9.93;5.47;;;12.00;99.90;;;;;;4943853;29;20207;-64
2023/05/28 02:37:17;;;;;;;10.40;5.97;;;12.00;99.90;;;;;;4912339;29;20195;-63
2023/05/28 02:39:45;;;;;;;9.93;5.53;;;12.10;99.90;;;;;;4936854;28;20246;-64
2023/05/28 02:42:12;;;;;;;9.20;5.43;;;12.00;99.90;;;;;;4918032;29;20713;-64
2023/05/28 02:44:39;;;;;;;10.73;6.73;;;12.00;99.90;;;;;;4924606;29;20309;-63
2023/05/28 02:47:07;;;;;;;10.97;6.57;;;12.10;99.90;;;;;;4938008;29;20202;-59
2023/05/28 02:49:35;;;;;;;11.67;5.97;;;12.10;99.90;;;;;;4930037;29;20221;-63
2023/05/28 02:52:02;;;;;;;7.37;4.93;;;12.10;99.90;;;;;;4936745;29;20203;-61
2023/05/28 02:54:38;;;;;;;7.83;5.50;;;12.00;99.90;;;;;;4946716;28;20222;-62
2023/05/28 02:57:05;;;;;;;11.27;6.40;;;12.00;99.90;;;;;;4935621;29;20196;-62
2023/05/28 02:59:32;;;;;;;8.83;5.83;;;12.00;99.90;;;;;;4937677;29;20192;-61
2023/05/28 03:02:00;;;;;;;11.40;6.83;;;12.00;99.90;;;;;;4938779;28;20230;-61
2023/05/28 03:04:27;;;;;;;10.07;6.90;;;11.90;99.90;;;;;;4926723;28;20688;-60
2023/05/28 03:06:54;;;;;;;8.70;6.03;;;11.60;99.90;;;;;;4945936;28;20186;-61
2023/05/28 03:09:22;;;;;;;11.50;7.17;;;11.10;99.90;;;;;;4963169;28;20202;-61
2023/05/28 03:11:49;;;;;;;15.43;8.13;;;11.10;99.90;;;;;;4918728;29;20217;-60
2023/05/28 03:14:16;;;;;;;17.47;8.03;;;11.30;99.90;;;;;;4938235;28;20199;-61
2023/05/28 03:16:44;;;;;;;9.63;5.83;;;11.40;99.90;;;;;;4946738;28;20209;-62
2023/05/28 03:19:20;;;;;;;11.07;6.13;;;11.50;99.90;;;;;;4943412;28;20194;-62
2023/05/28 03:21:47;;;;;;;9.43;5.77;;;11.40;99.90;;;;;;4938954;29;20250;-62
2023/05/28 03:24:15;;;;;;;11.73;7.73;;;11.50;99.90;;;;;;4939732;28;20205;-62
2023/05/28 03:26:46;;;;;;;11.00;6.60;;;11.70;99.90;;;;;;4933145;28;20782;-61
2023/05/28 03:29:19;;;;;;;18.87;7.73;;;11.70;99.90;;;;;;4936901;28;20839;-60
2023/05/28 03:32:06;;;;;;;9.57;6.03;;;11.70;99.90;;;;;;4949657;29;20206;-62
2023/05/28 03:34:35;;;;;;;12.77;7.87;;;11.80;99.90;;;;;;4949292;28;20290;-60
2023/05/28 03:37:03;;;;;;;15.60;8.73;;;11.80;99.90;;;;;;4935277;29;20545;-58
2023/05/28 03:39:31;;;;;;;60.10;25.80;;;11.70;99.90;;;;;;4948373;29;20692;-60
2023/05/28 03:41:59;;;;;;;15.10;8.83;;;11.70;99.90;;;;;;4939522;28;20253;-60
2023/05/28 03:44:28;;;;;;;24.13;11.77;;;11.60;99.90;;;;;;4940030;28;20206;-60
2023/05/28 03:46:56;;;;;;;11.90;6.80;;;11.80;99.90;;;;;;4949852;29;20290;-61
2023/05/28 03:49:23;;;;;;;12.77;6.17;;;12.00;99.90;;;;;;4926723;28;20722;-60
2023/05/28 03:51:51;;;;;;;9.77;6.20;;;12.20;99.90;;;;;;4918686;29;20210;-61
2023/05/28 03:54:18;;;;;;;10.07;5.60;;;12.30;99.90;;;;;;4939411;28;20202;-62
2023/05/28 03:56:45;;;;;;;20.47;12.23;;;12.30;99.90;;;;;;4943853;29;20226;-62
2023/05/28 03:59:13;;;;;;;20.97;12.60;;;12.30;99.90;;;;;;4945034;29;20199;-62
2023/05/28 04:01:40;;;;;;;28.67;17.47;;;12.20;99.90;;;;;;4949247;29;20202;-63
2023/05/28 04:04:07;;;;;;;16.60;9.07;;;12.10;99.90;;;;;;4948631;29;20227;-61
2023/05/28 04:06:36;;;;;;;11.10;7.07;;;12.20;99.90;;;;;;4938279;29;20208;-62
2023/05/28 04:09:03;;;;;;;11.10;6.70;;;12.20;99.90;;;;;;4942357;29;20704;-62
2023/05/28 04:11:30;;;;;;;10.13;5.57;;;12.20;99.90;;;;;;4939014;29;20203;-63
2023/05/28 04:13:58;;;;;;;8.27;5.97;;;12.30;99.90;;;;;;4937341;29;20480;-65
2023/05/28 04:16:26;;;;;;;13.67;6.43;;;12.40;99.90;;;;;;4945026;29;20203;-64
2023/05/28 04:18:53;;;;;;;9.00;5.73;;;12.60;99.90;;;;;;4938214;29;20700;-62
2023/05/28 04:21:22;;;;;;;8.90;6.10;;;12.60;99.90;;;;;;4938930;29;20210;-63
2023/05/28 04:23:49;;;;;;;9.30;5.67;;;12.90;99.90;;;;;;4920892;29;20718;-63
2023/05/28 04:26:16;;;;;;;12.00;5.83;;;13.00;99.90;;;;;;4938147;29;20265;-72
2023/05/28 04:28:43;;;;;;;8.03;5.73;;;13.40;99.90;;;;;;4939418;28;20223;-71
2023/05/28 04:31:11;;;;;;;7.57;4.90;;;14.10;99.90;;;;;;4943732;29;20267;-73
2023/05/28 04:33:38;;;;;;;7.50;4.78;;;15.10;99.90;;;;;;4937659;29;20202;-72
2023/05/28 04:36:09;;;;;;;7.18;5.05;;;15.80;99.90;;;;;;4945390;29;20249;-72
2023/05/28 04:38:36;;;;;;;7.28;5.13;;;16.40;99.90;;;;;;4923544;29;20222;-70
2023/05/28 04:41:04;;;;;;;7.22;4.50;;;16.90;99.90;;;;;;4944409;29;20654;-70
2023/05/28 04:43:33;;;;;;;5.78;4.72;;;17.40;99.90;;;;;;4924904;29;20744;-70
2023/05/28 04:46:03;;;;;;;8.40;4.72;;;18.10;99.90;;;;;;4925229;29;20232;-69
2023/05/28 04:48:35;;;;;;;8.98;5.15;;;18.70;99.90;;;;;;4928059;29;20932;-70
2023/05/28 04:51:03;;;;;;;6.35;4.20;;;19.10;99.90;;;;;;4927192;29;20570;-71
2023/05/28 04:53:31;;;;;;;7.60;4.72;;;18.80;99.90;;;;;;4948225;28;20210;-69
2023/05/28 04:56:00;;;;;;;11.43;4.85;;;18.90;99.90;;;;;;4940226;29;20247;-70
2023/05/28 04:58:27;;;;;;;7.40;4.55;;;19.20;99.90;;;;;;4929806;29;20199;-71
2023/05/28 05:00:56;;;;;;;8.90;4.60;;;19.80;99.90;;;;;;4930457;29;20653;-71
2023/05/28 05:03:23;;;;;;;8.15;4.78;;;20.00;99.90;;;;;;4925970;29;20240;-70
2023/05/28 05:05:50;;;;;;;9.57;5.00;;;20.30;99.90;;;;;;4932331;29;20212;-70
2023/05/28 05:08:18;;;;;;;7.43;5.00;;;21.00;99.90;;;;;;4945908;29;20199;-69
2023/05/28 05:10:45;;;;;;;7.10;4.57;;;21.40;99.90;;;;;;4944209;29;20200;-69
2023/05/28 05:13:14;;;;;;;9.98;4.40;;;20.80;99.90;;;;;;4934120;29;20728;-70
2023/05/28 05:15:42;;;;;;;8.23;4.38;;;20.60;99.90;;;;;;4943500;29;20563;-72
2023/05/28 05:18:10;;;;;;;5.68;4.47;;;21.30;99.90;;;;;;4939205;29;20203;-72
2023/05/28 05:20:37;;;;;;;8.98;5.03;;;21.10;99.90;;;;;;4945846;29;20727;-74
2023/05/28 05:23:04;;;;;;;8.55;4.78;;;21.40;99.90;;;;;;4941244;29;20297;-71
2023/05/28 05:25:32;;;;;;;7.47;5.20;;;21.60;99.90;;;;;;4947462;29;20325;-69
2023/05/28 05:27:59;;;;;;;8.02;5.07;;;21.60;99.90;;;;;;4930869;29;20712;-67
2023/05/28 05:30:28;;;;;;;6.47;4.25;;;21.60;99.90;;;;;;4930461;29;20203;-70
2023/05/28 05:32:55;;;;;;;9.07;5.20;;;22.00;99.90;;;;;;4939992;28;20206;-71
2023/05/28 05:35:23;;;;;;;7.40;4.57;;;22.80;99.90;;;;;;4926076;29;20211;-69
2023/05/28 05:37:59;;;;;;;8.38;4.90;;;23.60;99.90;;;;;;4948242;29;20203;-69
2023/05/28 05:40:50;;;;;;;7.47;5.25;;;23.80;99.90;;;;;;4929953;29;20688;-71
2023/05/28 05:43:31;;;;;;;8.88;4.82;;;23.30;99.90;;;;;;4931002;29;20290;-71
2023/05/28 05:45:59;;;;;;;8.88;5.28;;;22.30;99.90;;;;;;4924129;29;20321;-71
2023/05/28 05:48:27;;;;;;;7.30;5.03;;;22.70;99.90;;;;;;4949192;29;20201;-69
2023/05/28 05:50:55;;;;;;;7.35;4.60;;;24.20;99.90;;;;;;4911056;29;20204;-69
2023/05/28 05:53:22;;;;;;;10.35;4.72;;;25.60;99.90;;;;;;4933154;29;20199;-67
2023/05/28 05:55:51;;;;;;;7.60;4.72;;;26.40;99.90;;;;;;4922621;29;20632;-70
2023/05/28 05:58:18;;;;;;;11.75;4.90;;;26.80;99.90;;;;;;4932659;29;20199;-69
2023/05/28 06:00:47;;;;;;;9.07;4.93;;;27.60;99.90;;;;;;4920577;29;20285;-70
2023/05/28 06:03:15;;;;;;;10.60;5.35;;;27.90;99.90;;;;;;4918226;29;20832;-72
2023/05/28 06:06:00;;;;;;;7.25;4.45;;;27.10;99.90;;;;;;4935509;29;20234;-70
2023/05/28 06:08:59;;;;;;;7.70;5.13;;;27.30;99.90;;;;;;4906520;29;20301;-69
2023/05/28 06:11:42;;;;;;;10.25;5.07;;;26.70;99.90;;;;;;4912201;29;20742;-68
2023/05/28 06:14:10;;;;;;;10.75;4.82;;;26.90;99.90;;;;;;4922140;29;20200;-68
2023/05/28 06:16:37;;;;;;;7.95;5.32;;;27.70;99.90;;;;;;4942763;29;20303;-68
2023/05/28 06:19:04;;;;;;;8.43;4.93;;;29.00;99.90;;;;;;4911055;29;20196;-68
2023/05/28 06:21:31;;;;;;;13.43;4.68;;;29.10;99.90;;;;;;4917258;29;20208;-68
2023/05/28 06:23:58;;;;;;;8.32;4.95;;;29.00;99.90;;;;;;4934258;29;20287;-68
2023/05/28 06:26:26;;;;;;;6.60;5.07;;;29.60;99.90;;;;;;4927708;29;20212;-58
2023/05/28 06:28:53;;;;;;;7.68;4.78;;;29.10;99.90;;;;;;4934893;29;20228;-58
2023/05/28 06:31:21;;;;;;;7.55;4.75;;;29.00;99.90;;;;;;4925205;29;20200;-59
2023/05/28 06:33:49;;;;;;;8.02;5.10;;;30.50;99.90;;;;;;4928448;29;20299;-62
2023/05/28 06:36:17;;;;;;;7.43;4.60;;;30.50;99.90;;;;;;4906918;29;20965;-58
2023/05/28 06:38:45;;;;;;;7.25;4.82;;;29.50;99.90;;;;;;4908518;29;20292;-58
2023/05/28 06:41:12;;;;;;;9.18;4.97;;;29.90;99.90;;;;;;4911996;29;20204;-58
2023/05/28 06:43:46;;;;;;;9.13;5.40;;;30.30;99.90;;;;;;4925856;29;20200;-59
2023/05/28 06:46:22;;;;;;;9.80;5.13;;;29.80;99.90;;;;;;4922735;29;20709;-58
2023/05/28 06:48:50;;;;;;;9.65;5.00;;;29.90;99.90;;;;;;4917099;29;20207;-58
2023/05/28 06:51:18;;;;;;;5.35;3.90;;;30.20;99.90;;;;;;4914403;29;20740;-58
2023/05/28 06:53:46;;;;;;;8.07;4.50;;;32.30;99.90;;;;;;4910561;29;20252;-58
2023/05/28 06:56:16;;;;;;;9.00;4.75;;;32.70;99.90;;;;;;4921488;29;20267;-56
2023/05/28 06:58:43;;;;;;;9.07;4.47;;;32.80;99.90;;;;;;4905770;29;20203;-60
2023/05/28 07:01:22;;;;;;;8.95;4.20;;;32.40;99.90;;;;;;4908457;29;20294;-60
2023/05/28 07:04:01;;;;;;;8.82;4.85;;;32.70;99.90;;;;;;4927325;29;20692;-56
2023/05/28 07:06:35;;;;;;;7.53;4.75;;;33.00;99.90;;;;;;4905484;29;20220;-57
2023/05/28 07:09:03;;;;;;;8.00;4.78;;;33.70;99.90;;;;;;4922660;29;20302;-57
2023/05/28 07:11:32;;;;;;;8.07;4.10;;;30.90;99.90;;;;;;4932904;29;20254;-57
2023/05/28 07:13:59;;;;;;;6.78;4.10;;;30.70;99.90;;;;;;4927251;29;20666;-58
2023/05/28 07:16:26;;;;;;;7.72;4.20;;;30.00;99.90;;;;;;4923971;29;20193;-58
2023/05/28 07:18:53;;;;;;;7.07;3.85;;;30.10;99.90;;;;;;4918339;29;20232;-58
2023/05/28 07:21:20;;;;;;;7.28;3.42;;;31.80;99.90;;;;;;4911255;29;20208;-57
2023/05/28 07:23:47;;;;;;;11.85;4.30;;;33.30;99.90;;;;;;4931882;29;20650;-57
2023/05/28 07:26:15;;;;;;;8.55;4.20;;;31.30;99.90;;;;;;4929207;29;20211;-57
2023/05/28 07:28:42;;;;;;;6.05;3.88;;;30.70;99.90;;;;;;4929644;29;20586;-57
2023/05/28 07:31:09;;;;;;;7.55;3.55;;;31.80;99.90;;;;;;4935322;29;20678;-57
2023/05/28 07:33:37;;;;;;;8.00;3.95;;;32.20;99.90;;;;;;4907794;29;20200;-58
2023/05/28 07:36:05;;;;;;;7.38;3.75;;;32.00;99.90;;;;;;4934869;28;20215;-57
2023/05/28 07:38:34;;;;;;;9.05;3.78;;;31.80;99.90;;;;;;4917125;29;20236;-57
2023/05/28 07:41:02;;;;;;;13.48;4.20;;;32.20;99.90;;;;;;4912759;29;20339;-57
2023/05/28 07:43:34;;;;;;;7.18;3.70;;;32.70;99.90;;;;;;4911846;29;20239;-58
2023/05/28 07:46:05;;;;;;;5.72;3.25;;;33.50;99.90;;;;;;4925177;29;20217;-58
2023/05/28 07:48:39;;;;;;;7.07;3.55;;;34.80;99.90;;;;;;4926687;29;20198;-58
2023/05/28 07:51:17;;;;;;;8.52;3.47;;;35.00;99.90;;;;;;4922956;29;20243;-58
2023/05/28 07:53:48;;;;;;;6.13;3.35;;;33.90;99.90;;;;;;4925254;29;20202;-58
2023/05/28 07:56:24;;;;;;;6.38;3.25;;;32.10;99.90;;;;;;4928662;29;20211;-57
2023/05/28 07:58:51;;;;;;;6.32;3.35;;;32.60;99.90;;;;;;4928746;29;20239;-57
2023/05/28 08:01:20;;;;;;;8.13;3.72;;;32.60;99.90;;;;;;4933322;29;20543;-57
2023/05/28 08:03:50;;;;;;;8.27;3.17;;;32.20;99.90;;;;;;4931887;28;20731;-57
2023/05/28 08:06:21;;;;;;;5.25;3.10;;;33.10;99.90;;;;;;4908793;29;20727;-57
2023/05/28 08:08:48;;;;;;;5.65;2.95;;;33.00;99.90;;;;;;4935604;28;20204;-58
2023/05/28 08:11:16;;;;;;;5.53;3.22;;;35.40;99.90;;;;;;4925056;29;20195;-57
2023/05/28 08:13:43;;;;;;;5.43;3.40;;;33.90;99.90;;;;;;4930674;29;20203;-58
2023/05/28 08:16:14;;;;;;;6.10;2.83;;;33.80;99.90;;;;;;4931118;29;20234;-59
2023/05/28 08:19:00;;;;;;;4.53;2.97;;;33.60;99.90;;;;;;4925880;29;20226;-61
2023/05/28 08:21:28;;;;;;;4.70;2.88;;;34.10;99.90;;;;;;4929952;29;20223;-58
2023/05/28 08:23:55;;;;;;;4.88;3.20;;;33.60;99.90;;;;;;4917038;29;20242;-58
2023/05/28 08:30:22;;;;;;;5.32;3.30;;;33.10;99.90;;;;;;4927421;29;20190;-58
2023/05/28 08:32:58;;;;;;;4.80;2.42;;;32.20;99.90;;;;;;4930687;29;20687;-58
2023/05/28 08:35:25;;;;;;;5.80;2.83;;;32.50;99.90;;;;;;4928611;29;20200;-58
2023/05/28 08:37:54;;;;;;;7.05;3.65;;;33.20;99.90;;;;;;4921720;29;20324;-58
2023/05/28 08:40:50;;;;;;;7.00;3.15;;;33.80;99.90;;;;;;4925407;29;20200;-58
2023/05/28 08:43:18;;;;;;;7.78;3.28;;;34.10;99.90;;;;;;4927429;29;20203;-59
2023/05/28 08:45:46;;;;;;;6.30;3.22;;;33.80;99.90;;;;;;4922622;29;20761;-58
2023/05/28 08:48:15;;;;;;;5.90;2.70;;;32.90;99.90;;;;;;4912248;29;21351;-58
2023/05/28 08:50:48;;;;;;;6.78;3.00;;;32.20;99.90;;;;;;4923355;29;20215;-59
2023/05/28 08:53:23;;;;;;;5.40;3.08;;;31.90;99.90;;;;;;4924388;29;20780;-58
2023/05/28 08:55:53;;;;;;;5.63;3.38;;;31.90;99.90;;;;;;4926623;29;20290;-58
2023/05/28 08:58:22;;;;;;;4.95;3.25;;;32.30;99.90;;;;;;4927407;29;20216;-58
2023/05/28 09:00:51;;;;;;;6.28;3.03;;;32.80;99.90;;;;;;4925676;29;20200;-59
2023/05/28 09:03:39;;;;;;;10.23;3.13;;;32.80;99.90;;;;;;4924679;29;20321;-58
2023/05/28 09:06:31;;;;;;;9.63;3.38;;;31.10;99.90;;;;;;4908649;29;20570;-60
2023/05/28 09:08:59;;;;;;;7.32;2.75;;;32.60;99.90;;;;;;4926917;29;20204;-59
2023/05/28 09:11:44;;;;;;;6.57;3.28;;;34.40;99.90;;;;;;4926354;29;20196;-61
2023/05/28 09:14:12;;;;;;;5.85;3.20;;;32.60;99.90;;;;;;4925750;29;20203;-60
2023/05/28 09:16:44;;;;;;;7.50;3.53;;;31.80;99.90;;;;;;4926130;29;20217;-60
2023/05/28 09:19:17;;;;;;;4.47;2.67;;;34.10;99.90;;;;;;4911402;29;20195;-61
2023/05/28 09:21:56;;;;;;;5.68;3.08;;;33.50;99.90;;;;;;4927069;29;20204;-58
2023/05/28 09:24:28;;;;;;;8.73;3.42;;;31.50;99.90;;;;;;4927337;29;20742;-59
2023/05/28 09:27:06;;;;;;;4.60;2.80;;;30.70;99.90;;;;;;4926750;29;20307;-60
2023/05/28 09:29:34;;;;;;;5.65;2.97;;;31.90;99.90;;;;;;4911274;29;20199;-59
2023/05/28 09:32:01;;;;;;;6.35;2.90;;;31.10;99.90;;;;;;4927919;29;20278;-57
2023/05/28 09:34:30;;;;;;;4.85;2.90;;;32.10;99.90;;;;;;4927190;29;20207;-58
2023/05/28 09:37:01;;;;;;;7.63;3.55;;;32.60;99.90;;;;;;4927345;29;20203;-57
2023/05/28 09:39:29;;;;;;;6.38;3.10;;;33.60;99.90;;;;;;4926742;29;20203;-58
2023/05/28 09:42:03;;;;;;;6.57;3.08;;;34.80;99.90;;;;;;4926842;29;22328;-59
2023/05/28 09:44:35;;;;;;;7.18;3.22;;;32.90;99.90;;;;;;4927766;29;20616;-59
2023/05/28 09:47:16;;;;;;;8.15;3.20;;;30.40;99.90;;;;;;4925857;29;20215;-58
2023/05/28 09:49:47;;;;;;;6.57;3.03;;;29.40;99.90;;;;;;4927883;29;20230;-59
2023/05/28 09:52:21;;;;;;;6.43;2.85;;;30.00;99.90;;;;;;4925595;28;20215;-59
2023/05/28 09:54:55;;;;;;;3.85;2.35;;;31.40;99.90;;;;;;4923775;29;20642;-58
2023/05/28 09:57:26;;;;;;;4.47;2.60;;;31.50;99.90;;;;;;4912740;29;20685;-59
2023/05/28 09:59:55;;;;;;;4.30;2.85;;;31.00;99.90;;;;;;4925092;29;20210;-58
2023/05/28 10:02:43;;;;;;;5.20;2.88;;;31.00;99.90;;;;;;4920772;29;20267;-59
2023/05/28 10:05:13;;;;;;;8.65;3.00;;;29.60;99.90;;;;;;4906790;29;20232;-57
2023/05/28 10:07:44;;;;;;;4.13;2.60;;;30.30;99.90;;;;;;4908713;29;20212;-57
2023/05/28 10:10:14;;;;;;;4.93;2.97;;;30.50;99.90;;;;;;4906075;29;20191;-57
2023/05/28 10:12:41;;;;;;;7.63;3.45;;;29.40;99.90;;;;;;4909656;29;20288;-59
2023/05/28 10:15:10;;;;;;;4.65;2.60;;;29.40;99.90;;;;;;4909794;29;20204;-58
2023/05/28 10:17:38;;;;;;;5.13;2.70;;;29.30;99.90;;;;;;4911193;29;20358;-58
2023/05/28 10:20:10;;;;;;;6.57;2.88;;;28.90;99.90;;;;;;4911519;29;20710;-59
2023/05/28 10:22:39;;;;;;;5.28;2.80;;;28.70;99.90;;;;;;4909303;29;20618;-59
2023/05/28 10:25:08;;;;;;;5.30;2.83;;;28.30;99.90;;;;;;4909226;29;20286;-60
2023/05/28 10:27:37;;;;;;;5.00;2.83;;;29.60;99.90;;;;;;4901952;29;20233;-59
2023/05/28 10:30:05;;;;;;;3.47;2.55;;;30.50;99.90;;;;;;4903868;29;20202;-59
2023/05/28 10:32:42;;;;;;;6.15;2.85;;;31.90;99.90;;;;;;4905000;29;20200;-58
2023/05/28 10:35:11;;;;;;;5.07;2.72;;;31.30;99.10;;;;;;4902502;29;20226;-58
2023/05/28 10:37:39;;;;;;;5.55;2.92;;;31.60;99.60;;;;;;4902030;29;20271;-58
2023/05/28 10:40:10;;;;;;;5.82;3.05;;;30.80;99.90;;;;;;4900449;29;20219;-58
2023/05/28 10:42:41;;;;;;;5.82;2.90;;;31.20;99.90;;;;;;4891038;29;20270;-58
2023/05/28 10:45:10;;;;;;;6.15;3.15;;;30.70;99.90;;;;;;4921703;29;20291;-59
2023/05/28 10:47:42;;;;;;;6.78;3.45;;;29.90;99.90;;;;;;4908600;29;20303;-58
2023/05/28 10:50:09;;;;;;;6.18;3.22;;;29.70;99.90;;;;;;4908551;29;20607;-59
2023/05/28 10:52:39;;;;;;;6.60;3.17;;;29.40;99.90;;;;;;4909508;29;20188;-60
2023/05/28 10:55:09;;;;;;;4.70;3.08;;;28.60;99.90;;;;;;4909166;29;20192;-59
2023/05/28 10:57:44;;;;;;;3.78;2.70;;;28.30;99.90;;;;;;4909473;29;20256;-59
2023/05/28 11:00:39;;;;;;;7.22;3.83;;;29.10;99.90;;;;;;4907988;29;20735;-59
2023/05/28 11:03:06;;;;;;;4.75;2.85;;;29.50;99.90;;;;;;4928091;28;20243;-59
2023/05/28 11:05:35;;;;;;;6.38;3.17;;;30.00;99.90;;;;;;4928094;28;20862;-59
2023/05/28 11:08:03;;;;;;;6.07;2.90;;;31.10;99.20;;;;;;4924198;28;20533;-59
2023/05/28 11:10:30;;;;;;;3.38;2.47;;;31.30;99.90;;;;;;4942233;28;20222;-59
2023/05/28 11:12:58;;;;;;;5.50;3.05;;;32.40;98.00;;;;;;4940309;28;20691;-59
2023/05/28 11:15:25;;;;;;;6.50;3.38;;;30.50;98.50;;;;;;4945773;28;20720;-60
2023/05/28 11:17:53;;;;;;;4.55;2.67;;;30.50;99.10;;;;;;4913350;29;20708;-58
2023/05/28 11:20:21;;;;;;;5.93;3.00;;;30.40;99.90;;;;;;4927790;29;20540;-59
2023/05/28 11:22:48;;;;;;;221.93;17.58;;;30.70;99.30;;;;;;4946085;28;20253;-60
2023/05/28 11:25:16;;;;;;;13.90;2.90;;;32.40;99.00;;;;;;4930256;28;20282;-59
2023/05/28 11:27:45;;;;;;;5.32;2.80;;;30.60;98.80;;;;;;4923558;29;20716;-59
2023/05/28 11:30:15;;;;;;;24.02;3.40;;;30.60;99.00;;;;;;4928934;28;20202;-63
2023/05/28 11:32:44;;;;;;;7.60;3.00;;;31.60;99.60;;;;;;4945451;28;20295;-59
2023/05/28 11:35:16;;;;;;;20.88;2.70;;;31.50;98.70;;;;;;4946336;28;20312;-59
2023/05/28 11:37:44;;;;;;;19.42;3.17;;;30.40;98.90;;;;;;4948872;28;20680;-59
2023/05/28 11:40:14;;;;;;;52.42;3.60;;;30.70;99.20;;;;;;4916392;28;20210;-59
2023/05/28 11:42:43;;;;;;;17.35;2.83;;;30.10;97.80;;;;;;4944796;28;20206;-61
2023/05/28 11:45:12;;;;;;;16.55;3.03;;;29.40;98.70;;;;;;4915897;28;20556;-58
2023/05/28 11:47:39;;;;;;;33.33;3.58;;;29.10;98.80;;;;;;4945189;28;20211;-60
2023/05/28 11:50:12;;;;;;;24.83;3.40;;;29.20;99.30;;;;;;4930389;28;20191;-58
2023/05/28 11:52:40;;;;;;;24.35;3.03;;;29.50;98.80;;;;;;4945523;28;20641;-67
2023/05/28 11:55:08;;;;;;;5.53;1.98;;;29.10;99.30;;;;;;4942993;28;20689;-60
2023/05/28 11:57:39;;;;;;;7.13;2.60;;;29.10;98.50;;;;;;4930261;28;20235;-59
2023/05/28 12:00:15;;;;;;;10.35;3.58;;;30.40;98.90;;;;;;4930309;28;20237;-58
2023/05/28 12:02:48;;;;;;;13.00;2.53;;;30.30;98.60;;;;;;4927630;29;20703;-58
2023/05/28 12:05:17;;;;;;;20.58;3.15;;;29.20;98.20;;;;;;4925527;29;20654;-58
2023/05/28 12:07:52;;;;;;;6.93;2.65;;;28.70;99.20;;;;;;4927803;29;20226;-57
2023/05/28 12:10:21;;;;;;;15.73;2.50;;;27.90;98.60;;;;;;4927640;29;20202;-57
2023/05/28 12:12:56;;;;;;;19.85;3.22;;;27.90;99.40;;;;;;4926738;29;20661;-58
2023/05/28 12:15:24;;;;;;;43.30;3.58;;;28.20;99.10;;;;;;4925470;29;20930;-58
2023/05/28 12:17:56;;;;;;;13.73;2.83;;;29.30;99.30;;;;;;4927729;29;20283;-63
2023/05/28 12:20:23;;;;;;;22.13;2.60;;;29.10;99.20;;;;;;4930465;29;20255;-60
2023/05/28 12:23:07;;;;;;;11.43;2.40;;;28.20;99.90;;;;;;4937137;29;20202;-62
2023/05/28 12:25:56;;;;;;;40.45;3.47;;;28.40;99.00;;;;;;4936006;29;20291;-60
2023/05/28 12:28:23;;;;;;;12.80;2.90;;;29.00;99.50;;;;;;4935115;29;20219;-60
2023/05/28 12:30:54;;;;;;;9.73;2.45;;;28.60;99.30;;;;;;4946228;28;20215;-60
2023/05/28 12:33:22;;;;;;;14.45;2.75;;;27.90;99.70;;;;;;4948312;29;20199;-61
2023/05/28 12:35:50;;;;;;;16.55;2.20;;;27.60;99.70;;;;;;4945746;29;20191;-61
2023/05/28 12:38:19;;;;;;;4.50;2.33;;;26.80;99.30;;;;;;4920269;29;20439;-61
2023/05/28 12:40:46;;;;;;;6.50;2.13;;;26.50;99.80;;;;;;4940003;29;20207;-62
2023/05/28 12:43:14;;;;;;;17.23;2.78;;;26.70;99.90;;;;;;4948402;29;20568;-62
2023/05/28 12:45:41;;;;;;;20.88;3.22;;;26.80;99.90;;;;;;4940984;29;20207;-62
2023/05/28 12:48:08;;;;;;;10.27;1.95;;;26.70;99.90;;;;;;4950795;29;20309;-60
2023/05/28 12:50:36;;;;;;;16.52;3.10;;;26.00;99.60;;;;;;4952727;28;20660;-60
2023/05/28 12:53:05;;;;;;;22.58;2.58;;;26.20;99.90;;;;;;4938289;29;20230;-60
2023/05/28 12:55:33;;;;;;;10.52;2.40;;;25.90;99.90;;;;;;4939927;29;20286;-59
2023/05/28 12:58:00;;;;;;;12.35;2.33;;;25.80;99.90;;;;;;4940537;29;20607;-60
2023/05/28 13:00:27;;;;;;;11.45;2.10;;;25.50;99.90;;;;;;4943908;29;20190;-63